Time;durP1;ratioP1;P1;durP2;ratioP2;P2;SDS_P1;SDS_P2;PMS_P1;PMS_P2;Temp;Humidity;BMP_temperature;BMP_pressure;BME280_temperature;BME280_humidity;BME280_pressure;Samples;Min_cycle;Max_cycle;Signal;HPM_P1;HPM_P2
2022/07/15 00:01:51;;;;;;;10.07;2.10;;;13.30;99.90;;;;;;5073889;28;20473;-83
2022/07/15 00:04:16;;;;;;;15.07;3.05;;;13.30;99.90;;;;;;5090224;28;20528;-83
2022/07/15 00:06:42;;;;;;;9.30;3.05;;;13.30;99.90;;;;;;5073148;28;20428;-83
2022/07/15 00:09:08;;;;;;;7.90;1.92;;;13.30;99.90;;;;;;5090369;28;20043;-83
2022/07/15 00:11:34;;;;;;;6.82;1.85;;;13.20;99.90;;;;;;5090445;28;20048;-83
2022/07/15 00:14:00;;;;;;;9.15;2.03;;;13.20;99.90;;;;;;5073152;28;20082;-83
2022/07/15 00:16:26;;;;;;;5.22;1.50;;;13.10;99.90;;;;;;5090465;28;20079;-83
2022/07/15 00:18:51;;;;;;;8.35;1.80;;;13.10;99.90;;;;;;5089989;28;20413;-83
2022/07/15 00:21:17;;;;;;;7.07;1.80;;;13.10;99.90;;;;;;5090256;28;20476;-83
2022/07/15 00:23:42;;;;;;;10.98;2.92;;;13.00;99.90;;;;;;5088064;28;20476;-83
2022/07/15 00:26:08;;;;;;;14.77;2.15;;;13.10;99.90;;;;;;5071886;28;20093;-83
2022/07/15 00:28:34;;;;;;;6.75;2.13;;;13.10;99.90;;;;;;5090222;28;20409;-82
2022/07/15 00:30:59;;;;;;;10.88;2.92;;;13.00;99.90;;;;;;5089514;28;20047;-82
2022/07/15 00:33:25;;;;;;;7.28;1.90;;;13.00;99.90;;;;;;5073114;28;20039;-82
2022/07/15 00:35:51;;;;;;;6.50;1.60;;;13.00;99.90;;;;;;5089797;28;20048;-83
2022/07/15 00:38:17;;;;;;;8.85;2.42;;;13.00;99.90;;;;;;5089347;28;20039;-83
2022/07/15 00:40:47;;;;;;;12.93;3.20;;;12.90;99.90;;;;;;5089713;28;20080;-83
2022/07/15 00:43:16;;;;;;;8.52;2.00;;;13.00;99.90;;;;;;5088985;28;20106;-83
2022/07/15 00:45:41;;;;;;;5.68;1.67;;;12.90;99.90;;;;;;5035206;28;1101820;-83
2022/07/15 00:48:07;;;;;;;12.38;2.78;;;12.80;99.90;;;;;;5090280;28;20048;-83
2022/07/15 00:50:33;;;;;;;9.30;2.63;;;12.80;99.90;;;;;;5090648;28;20561;-83
2022/07/15 00:53:10;;;;;;;10.85;3.03;;;12.90;99.90;;;;;;5090468;28;20036;-83
2022/07/15 00:55:43;;;;;;;7.57;1.85;;;12.90;99.90;;;;;;5073389;28;20097;-83
2022/07/15 00:58:14;;;;;;;8.20;1.90;;;12.90;99.90;;;;;;5073504;28;20482;-83
2022/07/15 01:00:41;;;;;;;7.10;1.88;;;12.80;99.90;;;;;;5073479;28;20500;-83
2022/07/15 01:03:07;;;;;;;9.95;2.72;;;12.80;99.90;;;;;;5090232;28;20122;-83
2022/07/15 01:05:33;;;;;;;8.43;1.88;;;12.80;99.90;;;;;;5089803;28;20799;-83
2022/07/15 01:07:59;;;;;;;11.18;2.65;;;12.80;99.90;;;;;;5072860;28;20040;-83
2022/07/15 01:10:25;;;;;;;9.60;2.80;;;12.80;99.90;;;;;;5071349;28;20046;-83
2022/07/15 01:12:52;;;;;;;10.20;2.10;;;12.80;99.90;;;;;;5073824;28;20090;-84
2022/07/15 01:15:18;;;;;;;7.38;1.88;;;12.70;99.90;;;;;;5071945;28;20047;-83
2022/07/15 01:17:45;;;;;;;10.68;2.45;;;12.80;99.90;;;;;;5089165;28;20036;-84
2022/07/15 01:20:12;;;;;;;10.77;3.67;;;12.70;99.90;;;;;;5089659;28;20040;-84
2022/07/15 01:22:38;;;;;;;7.55;2.20;;;12.80;99.90;;;;;;5073221;28;20089;-84
2022/07/15 01:25:04;;;;;;;8.57;2.33;;;12.80;99.90;;;;;;5072290;28;20043;-84
2022/07/15 01:27:32;;;;;;;13.07;3.72;;;12.80;99.90;;;;;;5090771;28;20580;-84
2022/07/15 01:29:59;;;;;;;8.23;2.42;;;12.90;99.90;;;;;;5089302;28;20044;-84
2022/07/15 01:32:25;;;;;;;10.13;2.45;;;12.90;99.90;;;;;;5090650;28;20042;-84
2022/07/15 01:34:51;;;;;;;10.82;3.28;;;12.90;99.90;;;;;;5090194;28;20051;-84
2022/07/15 01:37:17;;;;;;;8.93;1.98;;;13.00;99.90;;;;;;5072860;28;20024;-84
2022/07/15 01:39:43;;;;;;;14.60;2.53;;;13.00;99.90;;;;;;5090273;28;20127;-84
2022/07/15 01:42:09;;;;;;;12.27;3.30;;;13.00;99.90;;;;;;5089218;28;20047;-84
2022/07/15 01:44:34;;;;;;;7.90;2.28;;;13.00;99.90;;;;;;5072110;28;20052;-84
2022/07/15 01:47:00;;;;;;;9.38;2.72;;;13.00;99.90;;;;;;5089182;28;20131;-84
2022/07/15 01:49:26;;;;;;;8.57;2.15;;;13.10;99.90;;;;;;5089572;28;20123;-84
2022/07/15 01:51:54;;;;;;;8.70;2.47;;;13.00;99.90;;;;;;5089767;28;20028;-84
2022/07/15 01:54:21;;;;;;;12.40;3.40;;;13.00;99.90;;;;;;5072056;28;20114;-84
2022/07/15 01:56:48;;;;;;;12.55;3.40;;;13.10;99.90;;;;;;5072597;28;20389;-84
2022/07/15 01:59:13;;;;;;;10.57;2.30;;;13.10;99.90;;;;;;5088850;28;20036;-83
2022/07/15 02:01:39;;;;;;;11.32;2.40;;;13.10;99.90;;;;;;5089243;28;20109;-84
2022/07/15 02:04:05;;;;;;;9.52;2.17;;;13.00;99.90;;;;;;5089629;28;20071;-84
2022/07/15 02:06:30;;;;;;;7.90;2.15;;;13.00;99.90;;;;;;5071535;28;20093;-84
2022/07/15 02:08:56;;;;;;;8.77;1.85;;;13.00;99.90;;;;;;5090318;28;20099;-84
2022/07/15 02:11:22;;;;;;;10.98;2.55;;;13.10;99.90;;;;;;5089131;28;20613;-84
2022/07/15 02:13:47;;;;;;;8.18;2.45;;;13.10;99.90;;;;;;5071286;28;20047;-84
2022/07/15 02:16:14;;;;;;;12.95;3.03;;;13.10;99.90;;;;;;5089115;28;20071;-84
2022/07/15 02:18:39;;;;;;;7.90;2.13;;;13.20;99.90;;;;;;5088206;28;20044;-84
2022/07/15 02:21:05;;;;;;;7.47;1.98;;;13.20;99.90;;;;;;5089543;28;20040;-83
2022/07/15 02:23:31;;;;;;;11.93;3.05;;;13.30;99.90;;;;;;5089045;28;20039;-84
2022/07/15 02:25:56;;;;;;;20.40;2.92;;;13.30;99.90;;;;;;5088969;28;20065;-84
2022/07/15 02:28:23;;;;;;;9.82;2.20;;;13.30;99.90;;;;;;5089541;28;20382;-84
2022/07/15 02:30:48;;;;;;;8.43;2.28;;;13.30;99.90;;;;;;5071244;28;20040;-84
2022/07/15 02:33:14;;;;;;;13.77;3.55;;;13.30;99.90;;;;;;5071821;28;20634;-84
2022/07/15 02:35:41;;;;;;;11.30;2.85;;;13.40;99.90;;;;;;5071839;28;20557;-84
2022/07/15 02:38:07;;;;;;;10.73;2.20;;;13.40;99.90;;;;;;5088548;28;20168;-84
2022/07/15 02:40:33;;;;;;;11.93;2.38;;;13.40;99.90;;;;;;5072228;28;20119;-84
2022/07/15 02:43:00;;;;;;;10.93;3.13;;;13.30;99.90;;;;;;5071549;28;20040;-84
2022/07/15 02:45:28;;;;;;;8.25;2.30;;;13.40;99.90;;;;;;5072222;28;20055;-84
2022/07/15 02:47:54;;;;;;;8.55;2.15;;;13.40;99.90;;;;;;5071958;28;20032;-84
2022/07/15 02:50:21;;;;;;;9.00;2.15;;;13.30;99.90;;;;;;5071698;28;20093;-84
2022/07/15 02:52:46;;;;;;;11.60;2.97;;;13.30;99.90;;;;;;5072147;28;20047;-84
2022/07/15 02:55:13;;;;;;;6.53;1.73;;;13.40;99.90;;;;;;5088608;28;20043;-84
2022/07/15 02:57:40;;;;;;;9.23;2.05;;;13.40;99.90;;;;;;5089229;28;20036;-84
2022/07/15 03:00:08;;;;;;;10.25;3.00;;;13.30;99.90;;;;;;5088317;28;20036;-83
2022/07/15 03:02:34;;;;;;;6.80;2.25;;;13.30;99.90;;;;;;5088965;28;20040;-83
2022/07/15 03:05:00;;;;;;;6.68;1.70;;;13.30;99.90;;;;;;5088220;28;20093;-83
2022/07/15 03:07:28;;;;;;;12.15;2.40;;;13.20;99.90;;;;;;5072106;28;20066;-83
2022/07/15 03:09:54;;;;;;;8.82;2.20;;;13.20;99.90;;;;;;5088798;28;20040;-84
2022/07/15 03:12:20;;;;;;;12.68;2.63;;;13.20;99.90;;;;;;5087811;28;20047;-83
2022/07/15 03:14:46;;;;;;;7.57;1.90;;;13.30;99.90;;;;;;5088571;28;20513;-83
2022/07/15 03:17:11;;;;;;;9.55;2.50;;;13.30;99.90;;;;;;5088327;28;20071;-83
2022/07/15 03:19:37;;;;;;;8.90;1.70;;;13.30;99.90;;;;;;5071536;28;20040;-83
2022/07/15 03:22:02;;;;;;;8.65;2.03;;;13.30;99.90;;;;;;5088225;28;20032;-83
2022/07/15 03:24:28;;;;;;;7.22;1.67;;;13.20;99.90;;;;;;5088103;28;20064;-83
2022/07/15 03:26:53;;;;;;;12.77;3.10;;;13.20;99.90;;;;;;5088600;28;20070;-83
2022/07/15 03:29:19;;;;;;;11.13;2.95;;;13.20;99.90;;;;;;5088028;28;20052;-83
2022/07/15 03:31:45;;;;;;;11.73;2.53;;;13.20;99.90;;;;;;5088421;28;20036;-83
2022/07/15 03:34:11;;;;;;;10.93;2.63;;;13.20;99.90;;;;;;5088582;28;20513;-83
2022/07/15 03:36:40;;;;;;;7.90;1.58;;;13.10;99.90;;;;;;5088212;28;20040;-83
2022/07/15 03:39:06;;;;;;;8.95;1.73;;;13.00;99.90;;;;;;5091517;28;20040;-83
2022/07/15 03:41:32;;;;;;;10.77;2.35;;;12.90;99.90;;;;;;5091881;28;20043;-83
2022/07/15 03:43:59;;;;;;;11.25;3.42;;;12.90;99.90;;;;;;5091729;28;20047;-83
2022/07/15 03:46:25;;;;;;;11.43;3.30;;;12.80;99.90;;;;;;5092324;28;20044;-83
2022/07/15 03:48:51;;;;;;;10.75;2.28;;;12.80;99.90;;;;;;5091593;28;20043;-83
2022/07/15 03:51:17;;;;;;;8.75;1.95;;;12.80;99.90;;;;;;5091834;28;20051;-83
2022/07/15 03:53:43;;;;;;;10.63;3.22;;;12.70;99.90;;;;;;5091598;28;20043;-83
2022/07/15 03:56:08;;;;;;;7.57;2.15;;;12.70;99.90;;;;;;5091575;28;20062;-83
2022/07/15 03:58:34;;;;;;;12.45;2.40;;;12.70;99.90;;;;;;5074798;28;20448;-83
2022/07/15 04:01:00;;;;;;;13.18;3.53;;;12.70;99.90;;;;;;5074562;28;20074;-83
2022/07/15 04:03:25;;;;;;;7.15;2.22;;;12.70;99.90;;;;;;5091005;28;20032;-83
2022/07/15 04:05:51;;;;;;;11.63;3.60;;;12.70;99.90;;;;;;5091827;28;20477;-83
2022/07/15 04:08:17;;;;;;;7.95;1.85;;;12.70;99.90;;;;;;5091967;28;20104;-83
2022/07/15 04:10:42;;;;;;;8.63;2.20;;;12.60;99.90;;;;;;5073816;28;20477;-83
2022/07/15 04:13:08;;;;;;;10.23;3.25;;;12.60;99.90;;;;;;5074709;28;20456;-83
2022/07/15 04:15:34;;;;;;;7.97;2.78;;;12.70;99.90;;;;;;5091148;28;20070;-83
2022/07/15 04:18:01;;;;;;;9.13;2.33;;;12.60;99.90;;;;;;5091491;28;20085;-83
2022/07/15 04:20:27;;;;;;;12.65;3.72;;;12.60;99.90;;;;;;5091313;28;20040;-83
2022/07/15 04:22:53;;;;;;;12.00;3.55;;;12.60;99.90;;;;;;5091496;28;20098;-83
2022/07/15 04:25:20;;;;;;;10.98;3.08;;;12.70;99.90;;;;;;5091618;28;20070;-83
2022/07/15 04:27:50;;;;;;;13.70;2.75;;;12.70;99.90;;;;;;5090405;28;20497;-83
2022/07/15 04:30:15;;;;;;;11.10;3.15;;;12.70;99.90;;;;;;5091300;28;20119;-83
2022/07/15 04:32:41;;;;;;;7.13;2.47;;;12.60;99.90;;;;;;5074992;28;20181;-83
2022/07/15 04:35:07;;;;;;;8.98;2.33;;;12.60;99.90;;;;;;5090695;28;20047;-83
2022/07/15 04:37:33;;;;;;;11.38;3.35;;;12.60;99.90;;;;;;5074605;28;20047;-83
2022/07/15 04:39:59;;;;;;;11.40;2.40;;;12.70;99.90;;;;;;5073938;28;20039;-83
2022/07/15 04:42:25;;;;;;;7.57;2.33;;;12.70;99.90;;;;;;5090808;28;20040;-83
2022/07/15 04:44:50;;;;;;;11.82;2.35;;;12.70;99.90;;;;;;5089763;28;20040;-83
2022/07/15 04:47:16;;;;;;;8.73;2.00;;;12.70;99.90;;;;;;5089865;28;20040;-83
2022/07/15 04:52:27;;;;;;;10.88;3.40;;;12.80;99.90;;;;;;5090172;28;20127;-83
2022/07/15 04:54:53;;;;;;;9.18;3.05;;;12.90;99.90;;;;;;5073696;28;20040;-83
2022/07/15 04:57:20;;;;;;;8.30;2.28;;;12.90;99.90;;;;;;5090520;28;20133;-83
2022/07/15 04:59:46;;;;;;;12.48;2.40;;;13.00;99.90;;;;;;5090592;28;20036;-83
2022/07/15 05:02:12;;;;;;;11.93;3.05;;;12.90;99.90;;;;;;5073872;28;20041;-83
2022/07/15 05:04:41;;;;;;;10.55;2.50;;;13.00;99.90;;;;;;5090018;28;20092;-83
2022/07/15 05:07:07;;;;;;;12.35;2.20;;;13.00;99.90;;;;;;5073478;28;20067;-83
2022/07/15 05:09:33;;;;;;;10.38;2.78;;;13.00;99.90;;;;;;5090206;28;20040;-83
2022/07/15 05:11:59;;;;;;;6.93;1.85;;;13.10;99.90;;;;;;5089901;28;20046;-83
2022/07/15 05:14:25;;;;;;;11.38;3.30;;;13.10;99.90;;;;;;5073591;28;20127;-83
2022/07/15 05:16:50;;;;;;;11.75;2.03;;;13.20;99.90;;;;;;5089919;28;20058;-83
2022/07/15 05:19:16;;;;;;;11.90;2.83;;;13.20;99.90;;;;;;5074067;28;20126;-84
2022/07/15 05:21:42;;;;;;;8.35;2.00;;;13.30;99.90;;;;;;5073595;28;20519;-82
2022/07/15 05:24:07;;;;;;;7.75;1.52;;;13.30;99.90;;;;;;5090786;28;20044;-83
2022/07/15 05:26:33;;;;;;;9.07;2.63;;;13.30;99.90;;;;;;5082203;28;20085;-83
2022/07/15 05:28:58;;;;;;;10.98;2.65;;;13.40;99.90;;;;;;5089277;28;20065;-83
2022/07/15 05:31:24;;;;;;;11.15;2.70;;;13.40;99.90;;;;;;5073474;28;20039;-84
2022/07/15 05:33:52;;;;;;;9.23;2.00;;;13.50;99.90;;;;;;5072713;28;20039;-83
2022/07/15 05:36:18;;;;;;;7.90;2.13;;;13.50;99.90;;;;;;5073794;28;20044;-83
2022/07/15 05:38:44;;;;;;;12.80;3.20;;;13.50;99.90;;;;;;5090285;28;20076;-83
2022/07/15 05:41:10;;;;;;;8.73;2.20;;;13.60;99.90;;;;;;5088464;28;20052;-84
2022/07/15 05:43:36;;;;;;;7.30;1.88;;;13.60;99.90;;;;;;5056889;28;20037;-84
2022/07/15 05:46:02;;;;;;;8.07;1.90;;;13.70;99.90;;;;;;5073874;28;20032;-84
2022/07/15 05:48:28;;;;;;;8.70;2.03;;;13.70;99.90;;;;;;5072766;28;20061;-84
2022/07/15 05:50:54;;;;;;;7.55;1.50;;;13.80;99.90;;;;;;5089833;28;20455;-83
2022/07/15 05:53:20;;;;;;;10.20;2.53;;;13.80;99.90;;;;;;5089039;28;20051;-83
2022/07/15 05:55:45;;;;;;;10.02;1.88;;;13.90;99.90;;;;;;5090119;28;20048;-83
2022/07/15 05:58:11;;;;;;;8.43;1.70;;;13.90;99.90;;;;;;5089085;28;20035;-84
2022/07/15 06:00:37;;;;;;;8.07;1.90;;;14.00;99.90;;;;;;5072561;28;20036;-83
2022/07/15 06:03:06;;;;;;;7.25;1.70;;;14.00;99.90;;;;;;5089308;28;20032;-84
2022/07/15 06:05:32;;;;;;;10.20;2.40;;;14.10;99.90;;;;;;5072659;28;20048;-84
2022/07/15 06:07:58;;;;;;;12.48;1.73;;;14.10;99.90;;;;;;5073197;28;20071;-84
2022/07/15 06:10:24;;;;;;;9.70;2.00;;;14.10;99.90;;;;;;5089223;28;20378;-84
2022/07/15 06:12:52;;;;;;;7.35;1.42;;;14.20;99.90;;;;;;5089891;28;20089;-84
2022/07/15 06:15:19;;;;;;;7.63;1.85;;;14.20;99.90;;;;;;5089858;28;20051;-84
2022/07/15 06:17:44;;;;;;;4.75;1.17;;;14.30;99.90;;;;;;5071631;28;20036;-84
2022/07/15 06:20:11;;;;;;;6.38;2.08;;;14.30;99.90;;;;;;5088982;28;20040;-83
2022/07/15 06:22:36;;;;;;;6.68;1.35;;;14.30;99.90;;;;;;5077148;28;20085;-83
2022/07/15 06:25:02;;;;;;;8.68;1.63;;;14.40;99.90;;;;;;5087497;28;20036;-84
2022/07/15 06:27:30;;;;;;;7.13;1.60;;;14.40;99.90;;;;;;5089348;28;20490;-84
2022/07/15 06:29:57;;;;;;;3.00;0.85;;;14.50;99.90;;;;;;5089161;28;20079;-84
2022/07/15 06:32:23;;;;;;;6.20;1.20;;;14.50;99.90;;;;;;5089290;28;20428;-84
2022/07/15 06:34:48;;;;;;;2.70;0.90;;;14.60;99.90;;;;;;5089157;28;20069;-84
2022/07/15 06:37:14;;;;;;;5.85;1.05;;;14.60;99.90;;;;;;5088450;28;20543;-84
2022/07/15 06:39:40;;;;;;;7.22;1.20;;;14.70;99.90;;;;;;5088764;28;20032;-84
2022/07/15 06:42:06;;;;;;;5.78;1.10;;;14.80;99.90;;;;;;5089144;28;20040;-84
2022/07/15 06:44:31;;;;;;;5.53;1.20;;;14.90;99.90;;;;;;5087928;28;20067;-84
2022/07/15 06:46:57;;;;;;;5.40;1.20;;;15.00;99.90;;;;;;5088879;28;20096;-84
2022/07/15 06:49:23;;;;;;;5.03;0.90;;;15.10;99.90;;;;;;5088033;28;20051;-84
2022/07/15 06:51:48;;;;;;;7.68;1.52;;;15.10;99.90;;;;;;5089163;28;20047;-84
2022/07/15 06:54:14;;;;;;;9.23;1.65;;;15.20;99.90;;;;;;5088219;28;20033;-84
2022/07/15 06:56:40;;;;;;;6.72;1.70;;;15.30;99.90;;;;;;5072202;28;20042;-84
2022/07/15 06:59:06;;;;;;;8.00;2.00;;;15.30;99.90;;;;;;5089020;28;20047;-84
2022/07/15 07:01:32;;;;;;;5.55;1.33;;;15.30;99.90;;;;;;5071559;28;20042;-84
2022/07/15 07:03:58;;;;;;;5.47;1.10;;;15.40;99.90;;;;;;5089573;28;20036;-84
2022/07/15 07:06:24;;;;;;;7.88;1.50;;;15.30;99.90;;;;;;5071437;28;20499;-84
2022/07/15 07:08:51;;;;;;;6.75;1.35;;;15.40;99.90;;;;;;5087342;28;20078;-83
2022/07/15 07:11:17;;;;;;;5.55;1.08;;;15.40;99.90;;;;;;5070127;28;20032;-84
2022/07/15 07:13:43;;;;;;;8.20;1.42;;;15.50;99.90;;;;;;5073429;28;20028;-83
2022/07/15 07:16:08;;;;;;;7.55;1.30;;;15.50;99.90;;;;;;5092804;28;20117;-83
2022/07/15 07:18:34;;;;;;;7.38;1.70;;;15.60;99.90;;;;;;5092123;28;20132;-84
2022/07/15 07:21:01;;;;;;;4.85;0.95;;;15.70;99.90;;;;;;5076154;28;20067;-84
2022/07/15 07:23:27;;;;;;;6.45;1.40;;;15.80;99.90;;;;;;5092226;28;20043;-84
2022/07/15 07:25:53;;;;;;;6.25;1.30;;;15.90;99.90;;;;;;5076166;28;20040;-84
2022/07/15 07:28:19;;;;;;;7.72;1.15;;;16.00;99.90;;;;;;5075711;28;20046;-84
2022/07/15 07:30:46;;;;;;;5.72;1.42;;;16.10;99.90;;;;;;5092269;28;20075;-84
2022/07/15 07:33:12;;;;;;;8.10;2.30;;;16.20;99.90;;;;;;5075659;28;20482;-84
2022/07/15 07:35:39;;;;;;;7.72;1.60;;;16.30;99.90;;;;;;5091656;28;20036;-84
2022/07/15 07:38:05;;;;;;;8.30;1.13;;;16.40;99.90;;;;;;5075715;28;20074;-84
2022/07/15 07:40:30;;;;;;;7.53;1.27;;;16.40;99.90;;;;;;5075633;28;20071;-85
2022/07/15 07:42:56;;;;;;;9.05;1.20;;;16.50;99.90;;;;;;5091753;28;20078;-85
2022/07/15 07:45:23;;;;;;;8.43;1.00;;;16.70;99.90;;;;;;5092099;28;20062;-85
2022/07/15 07:47:48;;;;;;;6.72;1.05;;;16.70;99.90;;;;;;5074368;28;20040;-85
2022/07/15 07:50:14;;;;;;;7.55;1.10;;;16.80;99.90;;;;;;5092259;28;20043;-85
2022/07/15 07:52:40;;;;;;;6.18;1.15;;;16.90;99.90;;;;;;5091983;28;20477;-85
2022/07/15 07:55:06;;;;;;;8.80;1.33;;;16.90;99.90;;;;;;5075196;28;20546;-85
2022/07/15 07:57:32;;;;;;;6.85;1.02;;;17.00;99.90;;;;;;5075275;28;20120;-85
2022/07/15 07:59:58;;;;;;;3.90;1.00;;;17.10;99.90;;;;;;5091317;28;20519;-85
2022/07/15 08:02:24;;;;;;;5.38;0.88;;;17.20;99.90;;;;;;5092770;28;20040;-85
2022/07/15 08:04:53;;;;;;;3.75;0.90;;;17.20;99.90;;;;;;5075247;28;20501;-85
2022/07/15 08:07:18;;;;;;;4.35;0.80;;;17.20;99.90;;;;;;5093452;28;20039;-85
2022/07/15 08:09:45;;;;;;;4.97;0.88;;;17.10;99.90;;;;;;5091948;28;20448;-84
2022/07/15 08:12:10;;;;;;;4.75;0.85;;;17.10;99.90;;;;;;5091676;28;20067;-84
2022/07/15 08:14:36;;;;;;;8.95;1.10;;;17.00;99.90;;;;;;5074533;28;20079;-84
2022/07/15 08:17:01;;;;;;;2.38;0.73;;;17.10;99.90;;;;;;5085242;28;20677;-84
2022/07/15 08:19:27;;;;;;;7.72;2.20;;;17.20;99.90;;;;;;5090462;28;20078;-84
2022/07/15 08:21:53;;;;;;;3.85;0.90;;;17.40;99.90;;;;;;5091476;28;20085;-84
2022/07/15 08:24:18;;;;;;;6.35;1.08;;;17.50;99.90;;;;;;5089929;28;20648;-84
2022/07/15 08:26:44;;;;;;;5.03;0.93;;;17.60;99.90;;;;;;5090557;28;20122;-84
2022/07/15 08:29:11;;;;;;;6.00;0.90;;;17.70;99.90;;;;;;5073961;28;20038;-84
2022/07/15 08:31:37;;;;;;;13.98;1.75;;;17.70;99.90;;;;;;5075134;28;20047;-84
2022/07/15 08:34:04;;;;;;;5.97;0.98;;;17.70;99.90;;;;;;5073734;28;20082;-85
2022/07/15 08:36:30;;;;;;;4.43;1.10;;;17.70;99.90;;;;;;5092042;28;20032;-84
2022/07/15 08:38:56;;;;;;;4.47;1.00;;;17.70;99.90;;;;;;5091304;28;20493;-84
2022/07/15 08:41:21;;;;;;;3.40;0.68;;;17.70;99.90;;;;;;5074548;28;20051;-84
2022/07/15 08:43:47;;;;;;;3.58;0.80;;;17.80;99.90;;;;;;5091352;28;20043;-84
2022/07/15 08:46:15;;;;;;;3.88;0.80;;;17.80;99.90;;;;;;5091035;28;20756;-85
2022/07/15 08:48:47;;;;;;;4.75;0.65;;;17.70;99.90;;;;;;5091200;28;20075;-84
2022/07/15 08:51:13;;;;;;;;;;;17.60;99.90;;;;;;5074932;28;20043;-84
2022/07/15 08:53:38;;;;;;;5.22;1.10;;;17.70;99.90;;;;;;5090127;28;19915;-84
2022/07/15 08:56:05;;;;;;;5.43;0.80;;;17.80;99.90;;;;;;5074244;28;20047;-84
2022/07/15 08:58:34;;;;;;;4.13;0.70;;;17.90;99.90;;;;;;5090910;28;20086;-85
2022/07/15 09:01:00;;;;;;;6.93;0.77;;;17.90;99.90;;;;;;5073825;28;20040;-85
2022/07/15 09:03:25;;;;;;;3.53;0.65;;;17.90;99.90;;;;;;5091121;28;20032;-85
2022/07/15 09:05:51;;;;;;;8.70;0.95;;;17.80;99.90;;;;;;5073300;28;20130;-85
2022/07/15 09:08:19;;;;;;;3.22;0.82;;;17.70;99.90;;;;;;5090693;28;20043;-85
2022/07/15 09:10:59;;;;;;;4.00;0.70;;;17.70;99.90;;;;;;5073382;28;20177;-85
2022/07/15 09:13:30;;;;;;;2.63;0.70;;;17.70;99.90;;;;;;5086819;28;20416;-85
2022/07/15 09:16:01;;;;;;;4.20;0.85;;;17.80;99.90;;;;;;5107386;28;20083;-85
2022/07/15 09:18:30;;;;;;;2.67;0.57;;;18.00;99.90;;;;;;5106953;28;20039;-85
2022/07/15 09:20:57;;;;;;;4.97;0.70;;;18.20;99.90;;;;;;5090994;28;20035;-85
2022/07/15 09:23:29;;;;;;;1.98;0.47;;;18.40;99.90;;;;;;5090071;28;20043;-85
2022/07/15 09:26:18;;;;;;;3.15;0.68;;;18.60;99.90;;;;;;5090267;28;20512;-86
2022/07/15 09:28:44;;;;;;;3.13;0.60;;;18.70;99.90;;;;;;5090437;28;20048;-85
2022/07/15 09:34:02;;;;;;;3.05;0.70;;;18.80;99.90;;;;;;5090423;28;20143;-85
2022/07/15 09:36:30;;;;;;;2.80;0.70;;;18.90;99.90;;;;;;5072434;28;20032;-85
2022/07/15 09:39:01;;;;;;;4.20;0.90;;;19.00;99.90;;;;;;5090490;28;20039;-85
2022/07/15 09:41:40;;;;;;;4.47;0.70;;;18.90;99.90;;;;;;5072620;28;20032;-85
2022/07/15 09:44:15;;;;;;;2.63;0.65;;;18.80;99.40;;;;;;5090090;28;20040;-85
2022/07/15 09:46:47;;;;;;;1.23;0.50;;;18.60;99.90;;;;;;5072916;28;20032;-85
2022/07/15 09:49:15;;;;;;;4.95;1.00;;;18.40;99.90;;;;;;5089844;28;20085;-84
2022/07/15 09:51:51;;;;;;;4.10;0.80;;;18.30;99.90;;;;;;5071201;28;20047;-85
2022/07/15 09:54:17;;;;;;;4.82;0.85;;;18.30;99.90;;;;;;5103799;28;20210;-84
2022/07/15 09:56:45;;;;;;;4.68;0.70;;;18.40;99.90;;;;;;5089827;28;20528;-84
2022/07/15 09:59:11;;;;;;;6.65;0.98;;;18.60;99.90;;;;;;5072730;28;20456;-85
2022/07/15 10:01:37;;;;;;;3.17;0.65;;;18.80;99.90;;;;;;5073106;28;20494;-84
2022/07/15 10:04:04;;;;;;;2.95;0.60;;;18.80;99.90;;;;;;5072952;28;20032;-85
2022/07/15 10:06:31;;;;;;;1.80;0.57;;;18.90;99.30;;;;;;5088998;28;20036;-85
2022/07/15 10:08:58;;;;;;;3.15;0.70;;;18.90;99.20;;;;;;5089541;28;20119;-85
2022/07/15 10:11:23;;;;;;;2.92;0.60;;;19.00;99.90;;;;;;5089734;28;20497;-85
2022/07/15 10:14:08;;;;;;;2.95;0.70;;;18.90;98.90;;;;;;5089666;28;20028;-85
2022/07/15 10:16:56;;;;;;;1.80;0.63;;;18.90;98.80;;;;;;5089994;28;20040;-85
2022/07/15 10:19:43;;;;;;;6.03;1.05;;;18.90;99.90;;;;;;5088705;28;20127;-85
2022/07/15 10:22:28;;;;;;;3.85;0.88;;;18.90;99.90;;;;;;5072991;28;20463;-85
2022/07/15 10:25:31;;;;;;;4.32;0.82;;;18.90;99.90;;;;;;5071798;28;20044;-85
2022/07/15 10:28:13;;;;;;;4.63;0.65;;;19.00;99.90;;;;;;5089474;28;20132;-85
2022/07/15 10:30:40;;;;;;;2.28;0.50;;;19.30;99.90;;;;;;5071751;28;20032;-85
2022/07/15 10:33:19;;;;;;;5.35;1.08;;;19.50;99.10;;;;;;5072690;28;20039;-85
2022/07/15 10:35:47;;;;;;;5.25;0.90;;;19.70;99.90;;;;;;5089741;28;20052;-85
2022/07/15 10:38:29;;;;;;;2.95;0.50;;;20.00;99.90;;;;;;5088601;28;20040;-85
2022/07/15 10:41:05;;;;;;;4.38;0.70;;;20.30;99.90;;;;;;5089508;28;20485;-85
2022/07/15 10:43:45;;;;;;;5.68;0.77;;;20.40;99.90;;;;;;5071861;28;20024;-86
2022/07/15 10:46:17;;;;;;;3.03;0.60;;;20.50;99.90;;;;;;5072749;28;20119;-85
2022/07/15 10:48:48;;;;;;;2.23;0.60;;;20.60;99.70;;;;;;5091722;28;20047;-85
2022/07/15 10:51:36;;;;;;;4.47;0.80;;;20.70;95.20;;;;;;5093606;28;20036;-85
2022/07/15 10:54:07;;;;;;;2.55;0.68;;;20.70;98.10;;;;;;5076442;28;20040;-85
2022/07/15 10:56:41;;;;;;;3.60;0.90;;;20.70;96.30;;;;;;5076015;28;20497;-85
2022/07/15 10:59:08;;;;;;;2.78;0.77;;;20.70;96.80;;;;;;5093521;28;20503;-85
2022/07/15 11:01:35;;;;;;;3.10;0.77;;;20.80;95.20;;;;;;5093055;28;20540;-85
2022/07/15 11:04:22;;;;;;;1.88;0.52;;;20.70;94.10;;;;;;5092619;28;20039;-85
2022/07/15 11:07:12;;;;;;;2.13;0.57;;;20.50;90.10;;;;;;5076586;28;20379;-85
2022/07/15 11:09:53;;;;;;;3.70;0.85;;;20.10;92.50;;;;;;5064004;28;20043;-85
2022/07/15 11:12:20;;;;;;;4.53;1.00;;;19.80;95.70;;;;;;5091230;28;20036;-85
2022/07/15 11:14:48;;;;;;;4.88;1.05;;;19.50;96.10;;;;;;5085330;28;20496;-84
2022/07/15 11:17:17;;;;;;;8.75;1.25;;;19.40;98.10;;;;;;5093152;28;20554;-85
2022/07/15 11:19:46;;;;;;;4.95;0.93;;;19.30;98.50;;;;;;5075937;28;20043;-85
2022/07/15 11:22:12;;;;;;;5.95;1.13;;;19.20;97.00;;;;;;5091308;28;20051;-85
2022/07/15 11:24:37;;;;;;;3.50;0.90;;;19.20;98.90;;;;;;5092069;28;20036;-85
2022/07/15 11:27:03;;;;;;;2.53;0.73;;;19.20;99.50;;;;;;5076548;28;20051;-85
2022/07/15 11:29:54;;;;;;;9.48;1.50;;;19.30;99.40;;;;;;5091664;28;20541;-84
2022/07/15 11:32:21;;;;;;;6.35;1.02;;;19.30;98.80;;;;;;5075807;28;20055;-85
2022/07/15 11:34:53;;;;;;;3.67;0.90;;;19.40;98.90;;;;;;5092201;28;20032;-85
2022/07/15 11:37:28;;;;;;;5.45;0.82;;;19.60;98.60;;;;;;5092529;28;20504;-85
2022/07/15 11:40:10;;;;;;;3.33;0.82;;;19.80;99.70;;;;;;5092108;28;20503;-86
2022/07/15 11:45:35;;;;;;;4.70;1.02;;;20.10;94.10;;;;;;5092901;28;20040;-85
2022/07/15 11:48:01;;;;;;;3.20;0.73;;;20.10;93.40;;;;;;5066891;28;20043;-86
2022/07/15 11:50:27;;;;;;;3.90;1.02;;;19.90;92.40;;;;;;5092224;28;20390;-86
2022/07/15 11:52:58;;;;;;;3.75;0.90;;;19.80;96.20;;;;;;5091442;28;20036;-86
2022/07/15 11:55:24;;;;;;;4.63;0.90;;;19.70;97.20;;;;;;5075106;28;20032;-86
2022/07/15 11:57:51;;;;;;;4.47;1.00;;;19.60;98.90;;;;;;5092040;28;20038;-86
2022/07/15 12:00:26;;;;;;;4.90;1.00;;;19.50;98.20;;;;;;5090632;28;20043;-86
2022/07/15 12:03:06;;;;;;;4.45;1.08;;;19.50;98.80;;;;;;5075220;28;20513;-86
2022/07/15 12:05:32;;;;;;;4.07;1.00;;;19.50;98.00;;;;;;5074468;28;20486;-86
2022/07/15 12:07:57;;;;;;;4.00;0.95;;;19.50;99.90;;;;;;5072824;28;20040;-86
2022/07/15 12:10:34;;;;;;;4.32;1.10;;;19.50;99.00;;;;;;5084042;28;20489;-86
2022/07/15 12:13:01;;;;;;;3.72;0.80;;;19.60;99.60;;;;;;5075085;28;20202;-86
2022/07/15 12:15:28;;;;;;;4.32;0.75;;;19.80;99.90;;;;;;5091442;28;20063;-86
2022/07/15 12:17:55;;;;;;;4.60;0.80;;;20.20;99.90;;;;;;5075916;28;20078;-86
2022/07/15 12:20:21;;;;;;;5.53;0.90;;;20.50;99.70;;;;;;5092018;28;20489;-86
2022/07/15 12:23:06;;;;;;;2.63;1.08;;;20.80;97.10;;;;;;5091689;28;20039;-86
2022/07/15 12:25:32;;;;;;;2.80;0.85;;;21.00;94.60;;;;;;5091661;28;20041;-86
2022/07/15 12:27:57;;;;;;;5.32;1.10;;;20.90;92.20;;;;;;5091099;28;20046;-86
2022/07/15 12:30:34;;;;;;;3.10;0.82;;;20.80;93.20;;;;;;5074651;28;20164;-86
2022/07/15 12:33:19;;;;;;;4.13;0.80;;;20.60;93.50;;;;;;5090571;28;20126;-86
2022/07/15 12:35:46;;;;;;;3.95;0.80;;;20.60;97.80;;;;;;5075009;28;20040;-86
2022/07/15 12:38:30;;;;;;;7.93;1.00;;;20.60;97.80;;;;;;5074557;28;20043;-86
2022/07/15 12:41:06;;;;;;;2.85;0.80;;;20.60;96.80;;;;;;5074562;28;20413;-86
2022/07/15 12:43:56;;;;;;;4.10;0.82;;;20.70;97.30;;;;;;5090636;28;20544;-86
2022/07/15 12:46:51;;;;;;;4.07;0.77;;;20.70;96.50;;;;;;5091109;28;20093;-86
2022/07/15 12:49:39;;;;;;;2.85;0.80;;;20.60;93.20;;;;;;5091064;28;20079;-86
2022/07/15 12:52:31;;;;;;;4.63;0.90;;;20.40;94.40;;;;;;5064554;28;20044;-86
2022/07/15 12:54:58;;;;;;;2.50;0.82;;;20.30;94.70;;;;;;5074266;28;20044;-86
2022/07/15 12:57:30;;;;;;;4.50;1.00;;;20.20;96.60;;;;;;5090725;28;20035;-86
2022/07/15 13:00:07;;;;;;;3.47;0.90;;;20.30;97.20;;;;;;5091201;28;20036;-86